createdAt,value
2017-11-11T00:02:20.955Z,83.00
2017-11-11T00:04:48.564Z,83.00
2017-11-11T00:07:16.884Z,83.90
2017-11-11T00:09:44.451Z,83.90
2017-11-11T00:12:12.088Z,83.90
2017-11-11T00:14:40.421Z,84.40
2017-11-11T00:17:07.987Z,84.30
2017-11-11T00:19:36.367Z,84.40
2017-11-11T00:22:03.940Z,84.40
2017-11-11T00:24:32.268Z,85.10
2017-11-11T00:26:59.856Z,85.10
2017-11-11T00:29:27.421Z,85.10
2017-11-11T00:31:55.047Z,85.10
2017-11-11T00:34:22.596Z,84.80
2017-11-11T00:36:50.155Z,85.20
2017-11-11T00:39:17.743Z,85.40
2017-11-11T00:41:45.303Z,85.00
2017-11-11T00:44:12.899Z,84.50
2017-11-11T00:46:41.222Z,83.90
2017-11-11T00:49:08.886Z,83.90
2017-11-11T00:51:36.472Z,83.90
2017-11-11T00:54:04.025Z,83.80
2017-11-11T00:56:31.631Z,83.40
2017-11-11T00:58:59.940Z,83.60
2017-11-11T01:01:27.507Z,83.60
2017-11-11T01:03:55.102Z,83.10
2017-11-11T01:06:22.734Z,83.30
2017-11-11T01:08:50.307Z,83.70
2017-11-11T01:11:17.858Z,84.60
2017-11-11T01:13:45.461Z,85.00
2017-11-11T01:16:13.799Z,85.10
2017-11-11T01:18:41.357Z,85.10
2017-11-11T01:21:08.961Z,86.10
2017-11-11T01:23:37.272Z,85.10
2017-11-11T01:26:04.867Z,85.10
2017-11-11T01:28:32.419Z,84.80
2017-11-11T01:31:00.004Z,84.70
2017-11-11T01:33:27.587Z,84.50
2017-11-11T01:35:55.942Z,85.10
2017-11-11T01:38:23.544Z,85.00
2017-11-11T01:40:51.135Z,85.40
2017-11-11T01:43:18.684Z,85.40
2017-11-11T01:45:46.251Z,85.60
2017-11-11T01:48:13.842Z,85.80
2017-11-11T01:50:41.451Z,86.00
2017-11-11T01:53:09.012Z,86.40
2017-11-11T01:55:36.609Z,86.60
2017-11-11T01:58:04.165Z,86.50
2017-11-11T02:00:31.774Z,86.70
2017-11-11T02:03:00.094Z,87.30
2017-11-11T02:05:27.700Z,87.30
2017-11-11T02:07:55.271Z,87.10
2017-11-11T02:10:23.620Z,87.30
2017-11-11T02:12:51.231Z,87.30
2017-11-11T02:15:18.786Z,87.20
2017-11-11T02:17:46.362Z,87.40
2017-11-11T02:20:13.964Z,87.60
2017-11-11T02:22:41.564Z,87.20
2017-11-11T02:25:09.894Z,87.20
2017-11-11T02:27:37.504Z,87.20
2017-11-11T02:30:05.832Z,87.60
2017-11-11T02:32:33.451Z,87.60
2017-11-11T02:35:01.035Z,87.40
2017-11-11T02:37:28.600Z,88.00
2017-11-11T02:39:56.216Z,87.40
2017-11-11T02:42:24.560Z,87.10
2017-11-11T02:44:52.124Z,87.70
2017-11-11T02:47:19.728Z,87.00
2017-11-11T02:49:48.055Z,87.00
2017-11-11T02:52:15.620Z,87.00
2017-11-11T02:54:43.226Z,87.10
2017-11-11T02:57:11.552Z,87.00
2017-11-11T02:59:39.107Z,86.90
2017-11-11T03:02:07.539Z,86.90
2017-11-11T03:04:35.908Z,87.10
2017-11-11T03:07:04.255Z,87.10
2017-11-11T03:09:31.814Z,87.10
2017-11-11T03:11:59.414Z,87.10
2017-11-11T03:14:27.780Z,87.30
2017-11-11T03:16:56.151Z,87.00
2017-11-11T03:19:23.711Z,86.90
2017-11-11T03:21:51.311Z,87.10
2017-11-11T03:24:18.866Z,87.10
2017-11-11T03:26:47.248Z,87.10
2017-11-11T03:29:15.575Z,87.00
2017-11-11T03:31:43.126Z,87.00
2017-11-11T03:34:10.748Z,86.80
2017-11-11T03:36:38.311Z,86.60
2017-11-11T03:39:05.898Z,86.60
2017-11-11T03:41:33.458Z,86.50
2017-11-11T03:44:01.061Z,86.40
2017-11-11T03:46:28.617Z,86.10
2017-11-11T03:48:56.226Z,86.60
2017-11-11T03:51:23.796Z,86.50
2017-11-11T03:53:51.408Z,86.70
2017-11-11T03:56:19.019Z,86.60
2017-11-11T03:58:46.579Z,86.00
2017-11-11T04:01:17.249Z,86.10
2017-11-11T04:03:44.847Z,86.40
2017-11-11T04:06:13.224Z,86.10
2017-11-11T04:08:41.599Z,86.00
2017-11-11T04:11:09.925Z,86.00
2017-11-11T04:13:37.506Z,86.00
2017-11-11T04:16:05.128Z,85.90
2017-11-11T04:18:32.687Z,85.50
2017-11-11T04:21:00.318Z,85.90
2017-11-11T04:23:28.642Z,85.60
2017-11-11T04:25:56.235Z,85.60
2017-11-11T04:28:23.836Z,85.50
2017-11-11T04:30:51.398Z,85.40
2017-11-11T04:33:19.011Z,85.30
2017-11-11T04:35:46.600Z,85.20
2017-11-11T04:38:14.986Z,85.00
2017-11-11T04:40:42.557Z,85.00
2017-11-11T04:43:10.117Z,85.10
2017-11-11T04:45:37.733Z,84.90
2017-11-11T04:48:05.304Z,84.60
2017-11-11T04:50:32.872Z,85.30
2017-11-11T04:53:00.458Z,84.80
2017-11-11T04:55:28.068Z,85.40
2017-11-11T04:57:55.657Z,84.60
2017-11-11T05:00:24.040Z,84.20
2017-11-11T05:02:52.371Z,84.30
2017-11-11T05:05:20.696Z,84.00
2017-11-11T05:07:49.080Z,84.00
2017-11-11T05:10:17.400Z,83.80
2017-11-11T05:12:45.011Z,83.80
2017-11-11T05:15:13.391Z,83.60
2017-11-11T05:17:41.737Z,83.60
2017-11-11T05:20:09.335Z,83.60
2017-11-11T05:22:37.660Z,84.10
2017-11-11T05:25:05.276Z,84.10
2017-11-11T05:27:33.611Z,83.30
2017-11-11T05:30:01.184Z,83.40
2017-11-11T05:32:28.798Z,83.10
2017-11-11T05:34:56.382Z,83.30
2017-11-11T05:37:23.971Z,83.00
2017-11-11T05:39:51.526Z,83.30
2017-11-11T05:42:19.131Z,83.30
2017-11-11T05:44:47.461Z,83.60
2017-11-11T05:47:15.076Z,83.00
2017-11-11T05:49:42.635Z,83.00
2017-11-11T05:52:10.190Z,83.00
2017-11-11T05:54:38.570Z,82.90
2017-11-11T05:57:06.890Z,82.80
2017-11-11T05:59:34.452Z,82.80
2017-11-11T06:02:02.036Z,82.80
2017-11-11T06:04:29.636Z,82.80
2017-11-11T06:06:57.196Z,82.80
2017-11-11T06:09:24.804Z,82.50
2017-11-11T06:11:52.364Z,82.50
2017-11-11T06:14:19.974Z,82.90
2017-11-11T06:16:48.287Z,82.60
2017-11-11T06:19:15.877Z,82.60
2017-11-11T06:21:43.435Z,82.70
2017-11-11T06:24:11.043Z,82.50
2017-11-11T06:26:38.640Z,82.60
2017-11-11T06:29:06.200Z,82.40
2017-11-11T06:31:33.800Z,82.40
2017-11-11T06:34:02.188Z,82.20
2017-11-11T06:36:30.509Z,82.30
2017-11-11T06:38:58.818Z,82.30
2017-11-11T06:41:26.417Z,82.20
2017-11-11T06:43:53.976Z,82.20
2017-11-11T06:46:21.574Z,82.20
2017-11-11T06:48:49.174Z,82.40
2017-11-11T06:51:16.727Z,82.50
2017-11-11T06:53:45.087Z,82.20
2017-11-11T06:56:12.695Z,82.20
2017-11-11T06:58:41.018Z,82.30
2017-11-11T07:01:08.629Z,82.20
2017-11-11T07:03:36.999Z,81.70
2017-11-11T07:06:05.324Z,81.60
2017-11-11T07:08:32.915Z,81.60
2017-11-11T07:11:00.468Z,81.50
2017-11-11T07:13:28.074Z,82.00
2017-11-11T07:15:56.452Z,80.80
2017-11-11T07:18:24.779Z,80.50
2017-11-11T07:20:52.362Z,80.50
2017-11-11T07:23:20.702Z,80.50
2017-11-11T07:25:48.300Z,80.50
2017-11-11T07:28:15.887Z,80.20
2017-11-11T07:30:44.203Z,80.30
2017-11-11T07:33:11.818Z,80.20
2017-11-11T07:35:40.153Z,79.70
2017-11-11T07:38:07.713Z,79.70
2017-11-11T07:40:35.309Z,79.30
2017-11-11T07:43:02.876Z,79.40
2017-11-11T07:45:31.250Z,79.40
2017-11-11T07:47:58.807Z,79.30
2017-11-11T07:50:26.373Z,80.10
2017-11-11T07:52:53.978Z,80.60
2017-11-11T07:55:21.591Z,80.30
2017-11-11T07:57:49.964Z,80.50
2017-11-11T08:00:17.526Z,80.40
2017-11-11T08:02:45.144Z,80.60
2017-11-11T08:05:12.699Z,81.20
2017-11-11T08:07:40.255Z,81.10
2017-11-11T08:10:07.861Z,81.00
2017-11-11T08:12:35.487Z,81.40
2017-11-11T08:15:03.123Z,81.70
2017-11-11T08:17:30.691Z,81.80
2017-11-11T08:19:58.252Z,82.00
2017-11-11T08:22:25.860Z,82.40
2017-11-11T08:24:53.459Z,81.60
2017-11-11T08:27:21.791Z,82.50
2017-11-11T08:29:49.379Z,82.50
2017-11-11T08:32:17.003Z,82.80
2017-11-11T08:34:44.618Z,83.40
2017-11-11T08:37:12.942Z,83.20
2017-11-11T08:39:40.499Z,83.20
2017-11-11T08:42:08.113Z,83.10
2017-11-11T08:44:36.444Z,83.30
2017-11-11T08:47:04.052Z,83.30
2017-11-11T08:49:32.413Z,83.20
2017-11-11T08:52:00.033Z,83.10
2017-11-11T08:54:27.578Z,83.10
2017-11-11T08:56:55.144Z,83.10
2017-11-11T08:59:22.752Z,82.90
2017-11-11T09:01:50.334Z,82.80
2017-11-11T09:04:17.927Z,83.20
2017-11-11T09:06:45.474Z,83.80
2017-11-11T09:09:13.102Z,83.50
2017-11-11T09:11:40.714Z,83.80
2017-11-11T09:14:08.254Z,83.60
2017-11-11T09:16:36.571Z,83.40
2017-11-11T09:19:04.171Z,83.40
2017-11-11T09:21:32.577Z,82.50
2017-11-11T09:24:00.130Z,82.50
2017-11-11T09:26:28.486Z,83.00
2017-11-11T09:28:56.084Z,83.00
2017-11-11T09:31:23.683Z,83.10
2017-11-11T09:33:51.305Z,83.10
2017-11-11T09:36:18.864Z,83.00
2017-11-11T09:38:46.419Z,82.20
2017-11-11T09:41:14.787Z,82.10
2017-11-11T09:43:43.108Z,82.80
2017-11-11T09:46:10.663Z,82.80
2017-11-11T09:48:38.260Z,82.60
2017-11-11T09:51:05.816Z,82.70
2017-11-11T09:53:33.467Z,83.20
2017-11-11T09:56:01.014Z,83.50
2017-11-11T09:58:28.664Z,82.60
2017-11-11T10:00:56.296Z,83.10
2017-11-11T10:03:24.667Z,82.90
2017-11-11T10:05:53.038Z,82.80
2017-11-11T10:08:21.407Z,82.80
2017-11-11T10:10:48.970Z,82.80
2017-11-11T10:13:17.353Z,83.20
2017-11-11T10:15:45.714Z,83.20
2017-11-11T10:18:13.282Z,83.10
2017-11-11T10:20:40.876Z,83.90
2017-11-11T10:23:09.248Z,83.70
2017-11-11T10:25:36.924Z,83.50
2017-11-11T10:28:04.526Z,84.50
2017-11-11T10:30:32.148Z,84.30
2017-11-11T10:32:59.797Z,84.60
2017-11-11T10:35:28.152Z,84.50
2017-11-11T10:37:55.708Z,84.40
2017-11-11T10:40:23.335Z,84.40
2017-11-11T10:42:50.907Z,84.80
2017-11-11T10:45:18.478Z,85.10
2017-11-11T10:47:46.101Z,84.80
2017-11-11T10:50:13.740Z,85.10
2017-11-11T10:52:42.095Z,85.10
2017-11-11T10:55:09.734Z,85.10
2017-11-11T10:57:37.295Z,84.90
2017-11-11T11:00:04.878Z,84.90
2017-11-11T11:02:32.511Z,85.10
2017-11-11T11:05:00.139Z,86.20
2017-11-11T11:07:27.777Z,85.70
2017-11-11T11:09:55.394Z,85.90
2017-11-11T11:12:22.953Z,85.60
2017-11-11T11:14:50.581Z,85.80
2017-11-11T11:17:18.265Z,86.00
2017-11-11T11:19:45.865Z,86.40
2017-11-11T11:22:13.469Z,86.40
2017-11-11T11:24:41.104Z,86.20
2017-11-11T11:27:09.452Z,86.00
2017-11-11T11:29:37.029Z,86.00
2017-11-11T11:32:04.731Z,85.90
2017-11-11T11:34:32.436Z,85.80
2017-11-11T11:37:00.063Z,85.90
2017-11-11T11:39:27.714Z,85.80
2017-11-11T11:41:55.340Z,85.80
2017-11-11T11:44:22.957Z,85.50
2017-11-11T11:46:50.591Z,85.90
2017-11-11T11:49:18.237Z,85.40
2017-11-11T11:51:45.900Z,86.00
2017-11-11T11:54:13.470Z,85.60
2017-11-11T11:56:41.901Z,86.60
2017-11-11T11:59:09.501Z,86.60
2017-11-11T12:01:37.134Z,85.40
2017-11-11T12:04:04.757Z,86.10
2017-11-11T12:06:32.375Z,86.00
2017-11-11T12:08:59.956Z,85.90
2017-11-11T12:11:28.333Z,87.00
2017-11-11T12:13:57.059Z,87.30
2017-11-11T12:16:24.677Z,87.30
2017-11-11T12:18:52.253Z,87.80
2017-11-11T12:21:20.599Z,87.60
2017-11-11T12:23:48.215Z,87.60
2017-11-11T12:26:15.814Z,87.60
2017-11-11T12:28:43.415Z,88.10
2017-11-11T12:31:11.026Z,87.80
2017-11-11T12:33:38.622Z,87.40
2017-11-11T12:36:06.263Z,88.30
2017-11-11T12:38:33.953Z,88.30
2017-11-11T12:41:02.376Z,88.50
2017-11-11T12:43:29.965Z,88.50
2017-11-11T12:45:57.599Z,88.10
2017-11-11T12:48:25.180Z,88.50
2017-11-11T12:50:52.814Z,89.00
2017-11-11T12:53:20.383Z,88.80
2017-11-11T12:55:48.023Z,88.70
2017-11-11T12:58:15.634Z,88.80
2017-11-11T13:00:43.190Z,89.20
2017-11-11T13:03:10.810Z,88.60
2017-11-11T13:05:38.387Z,88.90
2017-11-11T13:08:05.967Z,88.80
2017-11-11T13:10:33.586Z,89.20
2017-11-11T13:13:01.967Z,89.00
2017-11-11T13:15:29.591Z,89.00
2017-11-11T13:17:57.188Z,89.30
2017-11-11T13:20:24.853Z,88.40
2017-11-11T13:22:53.198Z,88.50
2017-11-11T13:25:21.807Z,88.40
2017-11-11T13:27:49.784Z,87.50
2017-11-11T13:30:17.506Z,87.70
2017-11-11T13:32:45.158Z,87.30
2017-11-11T13:35:12.755Z,87.80
2017-11-11T13:37:41.174Z,86.60
2017-11-11T13:40:08.759Z,86.60
2017-11-11T13:42:36.328Z,87.10
2017-11-11T13:45:03.959Z,86.90
2017-11-11T13:47:31.555Z,87.00
2017-11-11T13:49:59.181Z,87.60
2017-11-11T13:52:26.754Z,86.80
2017-11-11T13:54:54.374Z,87.10
2017-11-11T13:57:22.004Z,87.30
2017-11-11T13:59:49.672Z,87.70
2017-11-11T14:02:17.299Z,87.30
2017-11-11T14:04:44.883Z,87.50
2017-11-11T14:07:12.532Z,87.30
2017-11-11T14:09:40.176Z,87.30
2017-11-11T14:12:07.763Z,87.20
2017-11-11T14:14:35.332Z,87.50
2017-11-11T14:17:02.956Z,87.50
2017-11-11T14:19:30.577Z,87.60
2017-11-11T14:21:58.981Z,87.80
2017-11-11T14:24:26.546Z,87.80
2017-11-11T14:26:54.172Z,88.20
2017-11-11T14:29:21.788Z,88.50
2017-11-11T14:31:49.365Z,88.80
2017-11-11T14:34:16.943Z,88.30
2017-11-11T14:36:44.572Z,88.30
2017-11-11T14:39:12.151Z,88.40
2017-11-11T14:41:39.745Z,88.50
2017-11-11T14:44:08.141Z,89.00
2017-11-11T14:46:36.475Z,89.20
2017-11-11T14:49:04.076Z,89.10
2017-11-11T14:51:32.515Z,89.40
2017-11-11T14:54:00.078Z,89.40
2017-11-11T14:56:27.684Z,89.70
2017-11-11T14:58:55.299Z,89.80
2017-11-11T15:01:22.979Z,90.00
2017-11-11T15:03:51.348Z,90.20
2017-11-11T15:06:18.996Z,90.20
2017-11-11T15:08:46.617Z,90.10
2017-11-11T15:11:14.175Z,90.20
2017-11-11T15:13:41.796Z,90.10
2017-11-11T15:16:09.376Z,90.20
2017-11-11T15:18:37.729Z,90.10
2017-11-11T15:21:05.429Z,90.10
2017-11-11T15:23:33.770Z,90.20
2017-11-11T15:26:01.407Z,90.20
2017-11-11T15:28:28.978Z,90.30
2017-11-11T15:30:56.541Z,90.50
2017-11-11T15:33:24.166Z,90.40
2017-11-11T15:35:51.743Z,90.50
2017-11-11T15:38:19.318Z,90.60
2017-11-11T15:40:46.940Z,90.80
2017-11-11T15:43:14.523Z,90.60
2017-11-11T15:45:42.134Z,90.60
2017-11-11T15:48:09.756Z,90.50
2017-11-11T15:50:37.323Z,90.60
2017-11-11T15:53:04.887Z,90.50
2017-11-11T15:55:32.495Z,90.40
2017-11-11T15:58:00.837Z,90.50
2017-11-11T16:00:28.471Z,90.50
2017-11-11T16:02:56.046Z,90.30
2017-11-11T16:05:23.660Z,90.10
2017-11-11T16:07:51.984Z,90.10
2017-11-11T16:10:19.555Z,90.10
2017-11-11T16:12:47.190Z,90.00
2017-11-11T16:15:14.789Z,89.50
2017-11-11T16:17:42.379Z,89.10
2017-11-11T16:20:10.769Z,88.90
2017-11-11T16:22:38.339Z,88.90
2017-11-11T16:25:06.016Z,88.30
2017-11-11T16:27:33.585Z,88.50
2017-11-11T16:30:01.268Z,89.00
2017-11-11T16:32:32.840Z,88.70
2017-11-11T16:35:00.458Z,88.90
2017-11-11T16:37:28.059Z,89.40
2017-11-11T16:39:55.672Z,89.00
2017-11-11T16:42:23.279Z,89.00
2017-11-11T16:44:51.630Z,89.20
2017-11-11T16:47:19.266Z,89.20
2017-11-11T16:49:47.031Z,89.10
2017-11-11T16:52:14.720Z,89.10
2017-11-11T16:54:42.351Z,88.70
2017-11-11T16:57:09.992Z,89.20
2017-11-11T16:59:38.468Z,89.40
2017-11-11T17:02:06.839Z,90.00
2017-11-11T17:04:34.492Z,90.00
2017-11-11T17:07:02.160Z,90.00
2017-11-11T17:09:32.990Z,90.20
2017-11-11T17:12:02.896Z,90.10
2017-11-11T17:14:32.779Z,90.20
2017-11-11T17:17:02.570Z,90.30
2017-11-11T17:19:33.586Z,90.30
2017-11-11T17:22:05.096Z,90.60
2017-11-11T17:24:35.419Z,90.40
2017-11-11T17:27:02.975Z,90.60
2017-11-11T17:29:30.586Z,90.40
2017-11-11T17:31:58.181Z,90.50
2017-11-11T17:34:25.801Z,90.50
2017-11-11T17:36:53.369Z,90.30
2017-11-11T17:39:20.943Z,90.40
2017-11-11T17:41:49.281Z,90.70
2017-11-11T17:44:16.902Z,90.60
2017-11-11T17:46:44.618Z,90.60
2017-11-11T17:49:12.175Z,90.70
2017-11-11T17:51:39.775Z,90.80
2017-11-11T17:54:08.138Z,90.80
2017-11-11T17:56:35.726Z,90.80
2017-11-11T17:59:04.099Z,90.80
2017-11-11T18:01:32.436Z,90.80
2017-11-11T18:04:00.052Z,90.70
2017-11-11T18:06:27.602Z,90.80
2017-11-11T18:08:55.946Z,90.60
2017-11-11T18:11:23.563Z,90.60
2017-11-11T18:13:51.120Z,90.50
2017-11-11T18:16:18.726Z,90.70
2017-11-11T18:18:46.290Z,90.50
2017-11-11T18:21:13.843Z,90.50
2017-11-11T18:23:41.462Z,90.60
2017-11-11T18:26:09.023Z,90.50
2017-11-11T18:28:36.582Z,90.10
2017-11-11T18:31:04.185Z,90.20
2017-11-11T18:33:31.812Z,90.30
2017-11-11T18:35:59.367Z,90.30
2017-11-11T18:38:26.960Z,90.60
2017-11-11T18:40:54.580Z,90.40
2017-11-11T18:43:22.154Z,90.30
2017-11-11T18:45:49.756Z,90.50
2017-11-11T18:48:17.371Z,90.50
2017-11-11T18:50:44.992Z,90.50
2017-11-11T18:53:13.367Z,90.40
2017-11-11T18:55:40.958Z,90.40
2017-11-11T18:58:09.328Z,90.00
2017-11-11T19:00:37.653Z,90.10
2017-11-11T19:03:05.250Z,90.40
2017-11-11T19:05:33.918Z,89.50
2017-11-11T19:08:01.539Z,89.50
2017-11-11T19:10:29.186Z,89.80
2017-11-11T19:12:56.768Z,89.80
2017-11-11T19:15:24.361Z,89.60
2017-11-11T19:17:51.907Z,89.50
2017-11-11T19:20:19.504Z,89.40
2017-11-11T19:22:47.064Z,89.40
2017-11-11T19:25:14.700Z,89.30
2017-11-11T19:27:42.259Z,89.40
2017-11-11T19:30:09.816Z,89.50
2017-11-11T19:32:37.535Z,89.60
2017-11-11T19:35:05.936Z,90.00
2017-11-11T19:37:33.638Z,90.00
2017-11-11T19:40:01.248Z,90.10
2017-11-11T19:42:28.824Z,90.20
2017-11-11T19:44:56.420Z,90.20
2017-11-11T19:47:24.103Z,90.30
2017-11-11T19:49:51.868Z,90.30
2017-11-11T19:52:19.546Z,90.80
2017-11-11T19:54:47.884Z,91.00
2017-11-11T19:57:15.489Z,91.00
2017-11-11T19:59:43.060Z,91.00
2017-11-11T20:02:10.664Z,91.10
2017-11-11T20:04:38.215Z,91.00
2017-11-11T20:07:05.793Z,91.20
2017-11-11T20:09:33.410Z,91.20
2017-11-11T20:12:00.969Z,91.50
2017-11-11T20:14:29.438Z,91.20
2017-11-11T20:16:57.765Z,91.40
2017-11-11T20:19:25.399Z,91.40
2017-11-11T20:21:53.050Z,91.60
2017-11-11T20:24:20.628Z,91.60
2017-11-11T20:26:48.241Z,91.60
2017-11-11T20:29:16.638Z,91.70
2017-11-11T20:31:44.948Z,91.80
2017-11-11T20:34:13.476Z,91.70
2017-11-11T20:36:41.919Z,91.60
2017-11-11T20:39:09.495Z,91.60
2017-11-11T20:41:37.103Z,91.80
2017-11-11T20:44:05.473Z,91.50
2017-11-11T20:46:33.854Z,91.50
2017-11-11T20:49:02.185Z,91.30
2017-11-11T20:51:29.742Z,91.30
2017-11-11T20:53:57.343Z,91.10
2017-11-11T20:56:25.679Z,90.80
2017-11-11T20:58:53.315Z,90.80
2017-11-11T21:01:20.918Z,90.90
2017-11-11T21:03:51.591Z,89.70
2017-11-11T21:06:19.910Z,90.80
2017-11-11T21:08:47.594Z,90.80
2017-11-11T21:11:15.140Z,90.90
2017-11-11T21:13:42.744Z,91.00
2017-11-11T21:16:11.078Z,90.60
2017-11-11T21:18:38.627Z,90.60
2017-11-11T21:21:06.240Z,90.20
2017-11-11T21:23:33.855Z,89.30
2017-11-11T21:26:01.415Z,90.00
2017-11-11T21:28:29.016Z,89.00
2017-11-11T21:30:56.642Z,88.70
2017-11-11T21:33:24.204Z,89.00
2017-11-11T21:35:51.842Z,88.50
2017-11-11T21:38:19.390Z,88.00
2017-11-11T21:40:46.956Z,88.10
2017-11-11T21:43:14.547Z,87.90
2017-11-11T21:45:42.143Z,89.50
2017-11-11T21:48:09.747Z,89.10
2017-11-11T21:50:37.307Z,88.90
2017-11-11T21:53:04.986Z,89.50
2017-11-11T21:55:32.535Z,88.90
2017-11-11T21:58:00.087Z,89.40
2017-11-11T22:00:27.667Z,89.60
2017-11-11T22:02:55.304Z,89.90
2017-11-11T22:05:22.859Z,88.50
2017-11-11T22:07:51.178Z,89.70
2017-11-11T22:10:18.768Z,89.60
2017-11-11T22:12:47.157Z,89.10
2017-11-11T22:15:15.534Z,90.00
2017-11-11T22:17:43.078Z,90.00
2017-11-11T22:20:10.667Z,89.30
2017-11-11T22:22:39.042Z,90.20
2017-11-11T22:25:07.407Z,89.60
2017-11-11T22:27:35.004Z,89.50
2017-11-11T22:30:02.582Z,89.30
2017-11-11T22:32:30.186Z,89.20
2017-11-11T22:34:57.777Z,89.60
2017-11-11T22:37:25.380Z,90.00
2017-11-11T22:39:52.939Z,90.10
2017-11-11T22:42:20.531Z,89.80
2017-11-11T22:44:48.089Z,90.00
2017-11-11T22:47:15.681Z,90.00
2017-11-11T22:49:43.992Z,89.00
2017-11-11T22:52:11.538Z,89.00
2017-11-11T22:54:39.138Z,89.70
2017-11-11T22:57:06.736Z,90.10
2017-11-11T22:59:35.044Z,89.40
2017-11-11T23:02:02.595Z,89.40
2017-11-11T23:04:30.199Z,90.30
2017-11-11T23:06:57.775Z,90.70
2017-11-11T23:09:26.149Z,90.40
2017-11-11T23:11:53.695Z,90.40
2017-11-11T23:14:21.246Z,90.00
2017-11-11T23:16:48.853Z,90.00
2017-11-11T23:19:17.171Z,90.10
2017-11-11T23:21:44.771Z,90.10
2017-11-11T23:24:12.368Z,90.00
2017-11-11T23:26:39.926Z,90.20
2017-11-11T23:29:07.475Z,90.40
2017-11-11T23:31:35.859Z,90.20
2017-11-11T23:34:04.176Z,90.20
2017-11-11T23:36:31.756Z,90.20
2017-11-11T23:38:59.529Z,90.30
2017-11-11T23:41:27.128Z,90.30
2017-11-11T23:43:54.713Z,90.30
2017-11-11T23:46:22.329Z,90.40
2017-11-11T23:48:51.930Z,90.00
2017-11-11T23:51:19.488Z,90.20
2017-11-11T23:53:47.085Z,89.60
2017-11-11T23:56:14.660Z,90.00
2017-11-11T23:58:42.215Z,90.20
